sensor_id;sensor_type;location;lat;lon;timestamp;temperature;humidity
57753;DHT22;43583;53.132;6.574;2022-10-16T00:01:23;11.70;99.90
57753;DHT22;43583;53.132;6.574;2022-10-16T00:03:49;11.60;99.90
57753;DHT22;43583;53.132;6.574;2022-10-16T00:06:17;11.70;99.90
57753;DHT22;43583;53.132;6.574;2022-10-16T00:08:43;11.60;99.90
57753;DHT22;43583;53.132;6.574;2022-10-16T00:11:11;11.60;99.90
57753;DHT22;43583;53.132;6.574;2022-10-16T00:13:39;11.70;99.90
57753;DHT22;43583;53.132;6.574;2022-10-16T00:16:05;11.60;99.90
57753;DHT22;43583;53.132;6.574;2022-10-16T00:18:31;11.60;99.90
57753;DHT22;43583;53.132;6.574;2022-10-16T00:21:24;11.60;99.90
57753;DHT22;43583;53.132;6.574;2022-10-16T00:24:02;11.60;99.90
57753;DHT22;43583;53.132;6.574;2022-10-16T00:26:29;11.60;99.90
57753;DHT22;43583;53.132;6.574;2022-10-16T00:28:55;11.60;99.90
57753;DHT22;43583;53.132;6.574;2022-10-16T00:31:22;11.60;99.90
57753;DHT22;43583;53.132;6.574;2022-10-16T00:33:48;11.60;99.90
57753;DHT22;43583;53.132;6.574;2022-10-16T00:36:18;11.60;99.90
57753;DHT22;43583;53.132;6.574;2022-10-16T00:38:44;11.60;99.90
57753;DHT22;43583;53.132;6.574;2022-10-16T00:41:12;11.60;99.90
57753;DHT22;43583;53.132;6.574;2022-10-16T00:43:43;11.60;99.90
57753;DHT22;43583;53.132;6.574;2022-10-16T00:46:18;11.60;99.90
57753;DHT22;43583;53.132;6.574;2022-10-16T00:48:55;11.60;99.90
57753;DHT22;43583;53.132;6.574;2022-10-16T00:51:28;11.60;99.90
57753;DHT22;43583;53.132;6.574;2022-10-16T00:53:55;11.70;99.90
57753;DHT22;43583;53.132;6.574;2022-10-16T00:56:21;11.60;99.90
57753;DHT22;43583;53.132;6.574;2022-10-16T00:58:47;11.70;99.90
57753;DHT22;43583;53.132;6.574;2022-10-16T01:01:13;11.70;99.90
57753;DHT22;43583;53.132;6.574;2022-10-16T01:03:38;11.70;99.90
57753;DHT22;43583;53.132;6.574;2022-10-16T01:08:58;11.70;99.90
57753;DHT22;43583;53.132;6.574;2022-10-16T01:11:33;11.80;99.90
57753;DHT22;43583;53.132;6.574;2022-10-16T01:14:05;11.80;99.90
57753;DHT22;43583;53.132;6.574;2022-10-16T01:17:20;11.80;99.90
57753;DHT22;43583;53.132;6.574;2022-10-16T01:19:28;11.80;99.90
57753;DHT22;43583;53.132;6.574;2022-10-16T01:21:58;11.80;99.90
57753;DHT22;43583;53.132;6.574;2022-10-16T01:24:33;11.80;99.90
57753;DHT22;43583;53.132;6.574;2022-10-16T01:29:43;11.80;99.90
57753;DHT22;43583;53.132;6.574;2022-10-16T01:35:03;11.80;99.90
57753;DHT22;43583;53.132;6.574;2022-10-16T01:37:41;11.90;99.90
57753;DHT22;43583;53.132;6.574;2022-10-16T01:40:11;11.90;99.90
57753;DHT22;43583;53.132;6.574;2022-10-16T01:42:41;11.90;99.90
57753;DHT22;43583;53.132;6.574;2022-10-16T01:45:10;11.90;99.90
57753;DHT22;43583;53.132;6.574;2022-10-16T01:47:37;11.90;99.90
57753;DHT22;43583;53.132;6.574;2022-10-16T01:50:05;11.80;99.90
57753;DHT22;43583;53.132;6.574;2022-10-16T01:52:35;11.80;99.90
57753;DHT22;43583;53.132;6.574;2022-10-16T01:55:03;11.80;99.90
57753;DHT22;43583;53.132;6.574;2022-10-16T01:57:32;11.90;99.90
57753;DHT22;43583;53.132;6.574;2022-10-16T02:00:03;11.90;99.90
57753;DHT22;43583;53.132;6.574;2022-10-16T02:02:30;11.90;99.90
57753;DHT22;43583;53.132;6.574;2022-10-16T02:05:26;11.90;99.90
57753;DHT22;43583;53.132;6.574;2022-10-16T02:07:53;11.90;99.90
57753;DHT22;43583;53.132;6.574;2022-10-16T02:10:19;11.90;99.90
57753;DHT22;43583;53.132;6.574;2022-10-16T02:12:50;11.90;99.90
57753;DHT22;43583;53.132;6.574;2022-10-16T02:15:18;11.90;99.90
57753;DHT22;43583;53.132;6.574;2022-10-16T02:17:44;11.90;99.90
57753;DHT22;43583;53.132;6.574;2022-10-16T02:20:10;11.90;99.90
57753;DHT22;43583;53.132;6.574;2022-10-16T02:22:41;11.90;99.90
57753;DHT22;43583;53.132;6.574;2022-10-16T02:25:15;11.90;99.90
57753;DHT22;43583;53.132;6.574;2022-10-16T02:27:55;11.90;99.90
57753;DHT22;43583;53.132;6.574;2022-10-16T02:30:39;11.90;99.90
57753;DHT22;43583;53.132;6.574;2022-10-16T02:33:09;12.00;99.90
57753;DHT22;43583;53.132;6.574;2022-10-16T02:35:36;12.00;99.90
57753;DHT22;43583;53.132;6.574;2022-10-16T02:38:02;12.00;99.90
57753;DHT22;43583;53.132;6.574;2022-10-16T02:40:28;12.10;99.90
57753;DHT22;43583;53.132;6.574;2022-10-16T02:42:54;12.10;99.90
57753;DHT22;43583;53.132;6.574;2022-10-16T02:45:21;12.10;99.90
57753;DHT22;43583;53.132;6.574;2022-10-16T02:47:47;12.10;99.90
57753;DHT22;43583;53.132;6.574;2022-10-16T02:50:12;12.20;99.90
57753;DHT22;43583;53.132;6.574;2022-10-16T02:52:38;12.20;99.90
57753;DHT22;43583;53.132;6.574;2022-10-16T02:55:04;12.20;99.90
57753;DHT22;43583;53.132;6.574;2022-10-16T02:57:30;12.20;99.90
57753;DHT22;43583;53.132;6.574;2022-10-16T02:59:56;12.20;99.90
57753;DHT22;43583;53.132;6.574;2022-10-16T03:02:21;12.20;99.90
57753;DHT22;43583;53.132;6.574;2022-10-16T03:04:47;12.20;99.90
57753;DHT22;43583;53.132;6.574;2022-10-16T03:07:13;12.20;99.90
57753;DHT22;43583;53.132;6.574;2022-10-16T03:09:38;12.30;99.90
57753;DHT22;43583;53.132;6.574;2022-10-16T03:12:04;12.30;99.90
57753;DHT22;43583;53.132;6.574;2022-10-16T03:14:29;12.30;99.90
57753;DHT22;43583;53.132;6.574;2022-10-16T03:16:55;12.30;99.90
57753;DHT22;43583;53.132;6.574;2022-10-16T03:19:21;12.30;99.90
57753;DHT22;43583;53.132;6.574;2022-10-16T03:21:46;12.30;99.90
57753;DHT22;43583;53.132;6.574;2022-10-16T03:24:12;12.20;99.90
57753;DHT22;43583;53.132;6.574;2022-10-16T03:26:37;12.20;99.90
57753;DHT22;43583;53.132;6.574;2022-10-16T03:29:03;12.20;99.90
57753;DHT22;43583;53.132;6.574;2022-10-16T03:31:30;12.20;99.90
57753;DHT22;43583;53.132;6.574;2022-10-16T03:33:56;12.10;99.90
57753;DHT22;43583;53.132;6.574;2022-10-16T03:36:21;12.10;99.90
57753;DHT22;43583;53.132;6.574;2022-10-16T03:38:47;12.20;99.90
57753;DHT22;43583;53.132;6.574;2022-10-16T03:41:13;12.10;99.90
57753;DHT22;43583;53.132;6.574;2022-10-16T03:43:38;12.10;99.90
57753;DHT22;43583;53.132;6.574;2022-10-16T03:46:04;12.10;99.90
57753;DHT22;43583;53.132;6.574;2022-10-16T03:48:29;12.10;99.90
57753;DHT22;43583;53.132;6.574;2022-10-16T03:50:55;12.10;99.90
57753;DHT22;43583;53.132;6.574;2022-10-16T03:53:21;12.10;99.90
57753;DHT22;43583;53.132;6.574;2022-10-16T03:55:46;12.10;99.90
57753;DHT22;43583;53.132;6.574;2022-10-16T03:58:12;12.00;99.90
57753;DHT22;43583;53.132;6.574;2022-10-16T04:00:45;12.00;99.90
57753;DHT22;43583;53.132;6.574;2022-10-16T04:03:11;12.00;99.90
57753;DHT22;43583;53.132;6.574;2022-10-16T04:05:37;12.00;99.90
57753;DHT22;43583;53.132;6.574;2022-10-16T04:08:03;12.00;99.90
57753;DHT22;43583;53.132;6.574;2022-10-16T04:10:29;12.00;99.90
57753;DHT22;43583;53.132;6.574;2022-10-16T04:12:55;12.00;99.90
57753;DHT22;43583;53.132;6.574;2022-10-16T04:15:22;11.90;99.90
57753;DHT22;43583;53.132;6.574;2022-10-16T04:17:47;11.90;99.90
57753;DHT22;43583;53.132;6.574;2022-10-16T04:20:13;11.90;99.90
57753;DHT22;43583;53.132;6.574;2022-10-16T04:22:38;11.90;99.90
57753;DHT22;43583;53.132;6.574;2022-10-16T04:25:04;11.90;99.90
57753;DHT22;43583;53.132;6.574;2022-10-16T04:27:30;11.80;99.90
57753;DHT22;43583;53.132;6.574;2022-10-16T04:29:57;11.80;99.90
57753;DHT22;43583;53.132;6.574;2022-10-16T04:32:23;11.80;99.90
57753;DHT22;43583;53.132;6.574;2022-10-16T04:34:48;11.80;99.90
57753;DHT22;43583;53.132;6.574;2022-10-16T04:37:14;11.70;99.90
57753;DHT22;43583;53.132;6.574;2022-10-16T04:39:39;11.80;99.90
57753;DHT22;43583;53.132;6.574;2022-10-16T04:42:05;11.80;99.90
57753;DHT22;43583;53.132;6.574;2022-10-16T04:44:30;11.70;99.90
57753;DHT22;43583;53.132;6.574;2022-10-16T04:46:56;11.80;99.90
57753;DHT22;43583;53.132;6.574;2022-10-16T04:49:21;11.80;99.90
57753;DHT22;43583;53.132;6.574;2022-10-16T04:51:47;11.80;99.90
57753;DHT22;43583;53.132;6.574;2022-10-16T04:54:12;11.90;99.90
57753;DHT22;43583;53.132;6.574;2022-10-16T04:56:38;11.90;99.90
57753;DHT22;43583;53.132;6.574;2022-10-16T04:59:12;12.00;99.90
57753;DHT22;43583;53.132;6.574;2022-10-16T05:01:38;12.10;99.90
57753;DHT22;43583;53.132;6.574;2022-10-16T05:04:03;12.10;99.90
57753;DHT22;43583;53.132;6.574;2022-10-16T05:06:29;12.20;99.90
57753;DHT22;43583;53.132;6.574;2022-10-16T05:08:55;12.20;99.90
57753;DHT22;43583;53.132;6.574;2022-10-16T05:11:20;12.20;99.90
57753;DHT22;43583;53.132;6.574;2022-10-16T05:13:46;12.20;99.90
57753;DHT22;43583;53.132;6.574;2022-10-16T05:16:12;12.20;99.90
57753;DHT22;43583;53.132;6.574;2022-10-16T05:18:37;12.20;99.90
57753;DHT22;43583;53.132;6.574;2022-10-16T05:21:03;12.20;99.90
57753;DHT22;43583;53.132;6.574;2022-10-16T05:23:29;12.20;99.90
57753;DHT22;43583;53.132;6.574;2022-10-16T05:25:56;12.20;99.90
57753;DHT22;43583;53.132;6.574;2022-10-16T05:28:24;12.10;99.90
57753;DHT22;43583;53.132;6.574;2022-10-16T05:30:49;12.10;99.90
57753;DHT22;43583;53.132;6.574;2022-10-16T05:33:15;12.10;99.90
57753;DHT22;43583;53.132;6.574;2022-10-16T05:35:41;12.20;99.90
57753;DHT22;43583;53.132;6.574;2022-10-16T05:38:06;12.20;99.90
57753;DHT22;43583;53.132;6.574;2022-10-16T05:40:32;12.10;99.90
57753;DHT22;43583;53.132;6.574;2022-10-16T05:42:57;12.20;99.90
57753;DHT22;43583;53.132;6.574;2022-10-16T05:45:23;12.20;99.90
57753;DHT22;43583;53.132;6.574;2022-10-16T05:47:49;12.20;99.90
57753;DHT22;43583;53.132;6.574;2022-10-16T05:50:14;12.20;99.90
57753;DHT22;43583;53.132;6.574;2022-10-16T05:52:40;12.20;99.90
57753;DHT22;43583;53.132;6.574;2022-10-16T05:55:06;12.20;99.90
57753;DHT22;43583;53.132;6.574;2022-10-16T05:57:31;12.20;99.90
57753;DHT22;43583;53.132;6.574;2022-10-16T05:59:57;12.20;99.90
57753;DHT22;43583;53.132;6.574;2022-10-16T06:02:22;12.20;99.90
57753;DHT22;43583;53.132;6.574;2022-10-16T06:04:48;12.20;99.90
57753;DHT22;43583;53.132;6.574;2022-10-16T06:07:13;12.20;99.90
57753;DHT22;43583;53.132;6.574;2022-10-16T06:09:39;12.20;99.90
57753;DHT22;43583;53.132;6.574;2022-10-16T06:12:04;12.20;99.90
57753;DHT22;43583;53.132;6.574;2022-10-16T06:14:30;12.20;99.90
57753;DHT22;43583;53.132;6.574;2022-10-16T06:16:56;12.20;99.90
57753;DHT22;43583;53.132;6.574;2022-10-16T06:19:22;12.20;99.90
57753;DHT22;43583;53.132;6.574;2022-10-16T06:21:48;12.20;99.90
57753;DHT22;43583;53.132;6.574;2022-10-16T06:24:13;12.20;99.90
57753;DHT22;43583;53.132;6.574;2022-10-16T06:26:39;12.20;99.90
57753;DHT22;43583;53.132;6.574;2022-10-16T06:29:04;12.20;99.90
57753;DHT22;43583;53.132;6.574;2022-10-16T06:31:30;12.20;99.90
57753;DHT22;43583;53.132;6.574;2022-10-16T06:33:59;12.30;99.90
57753;DHT22;43583;53.132;6.574;2022-10-16T06:36:25;12.40;99.90
57753;DHT22;43583;53.132;6.574;2022-10-16T06:38:51;12.50;99.90
57753;DHT22;43583;53.132;6.574;2022-10-16T06:41:19;12.60;99.90
57753;DHT22;43583;53.132;6.574;2022-10-16T06:43:45;12.70;99.90
57753;DHT22;43583;53.132;6.574;2022-10-16T06:46:12;12.80;99.90
57753;DHT22;43583;53.132;6.574;2022-10-16T06:48:38;12.80;99.90
57753;DHT22;43583;53.132;6.574;2022-10-16T06:53:34;12.90;99.90
57753;DHT22;43583;53.132;6.574;2022-10-16T06:56:15;13.00;99.90
57753;DHT22;43583;53.132;6.574;2022-10-16T06:58:42;13.00;99.90
57753;DHT22;43583;53.132;6.574;2022-10-16T07:01:09;13.00;99.90
57753;DHT22;43583;53.132;6.574;2022-10-16T07:03:42;13.00;99.90
57753;DHT22;43583;53.132;6.574;2022-10-16T07:06:10;13.10;99.90
57753;DHT22;43583;53.132;6.574;2022-10-16T07:08:37;13.10;99.90
57753;DHT22;43583;53.132;6.574;2022-10-16T07:11:06;13.00;99.90
57753;DHT22;43583;53.132;6.574;2022-10-16T07:13:36;13.00;99.90
57753;DHT22;43583;53.132;6.574;2022-10-16T07:18:35;13.10;99.90
57753;DHT22;43583;53.132;6.574;2022-10-16T07:21:06;13.10;99.90
57753;DHT22;43583;53.132;6.574;2022-10-16T07:23:32;13.20;99.90
57753;DHT22;43583;53.132;6.574;2022-10-16T07:25:58;13.20;99.90
57753;DHT22;43583;53.132;6.574;2022-10-16T07:28:24;13.30;99.90
57753;DHT22;43583;53.132;6.574;2022-10-16T07:30:49;13.30;99.90
57753;DHT22;43583;53.132;6.574;2022-10-16T07:33:15;13.40;99.90
57753;DHT22;43583;53.132;6.574;2022-10-16T07:35:51;13.40;99.90
57753;DHT22;43583;53.132;6.574;2022-10-16T07:38:18;13.40;99.90
57753;DHT22;43583;53.132;6.574;2022-10-16T07:40:43;13.30;99.90
57753;DHT22;43583;53.132;6.574;2022-10-16T07:43:09;13.30;99.90
57753;DHT22;43583;53.132;6.574;2022-10-16T07:45:34;13.40;99.90
57753;DHT22;43583;53.132;6.574;2022-10-16T07:48:00;13.40;99.90
57753;DHT22;43583;53.132;6.574;2022-10-16T07:50:25;13.50;99.90
57753;DHT22;43583;53.132;6.574;2022-10-16T07:52:51;13.70;99.90
57753;DHT22;43583;53.132;6.574;2022-10-16T07:55:17;13.90;99.90
57753;DHT22;43583;53.132;6.574;2022-10-16T07:57:43;14.20;99.90
57753;DHT22;43583;53.132;6.574;2022-10-16T08:00:09;14.40;99.90
57753;DHT22;43583;53.132;6.574;2022-10-16T08:02:39;14.70;99.90
57753;DHT22;43583;53.132;6.574;2022-10-16T08:05:05;15.00;99.90
57753;DHT22;43583;53.132;6.574;2022-10-16T08:07:31;15.20;99.90
57753;DHT22;43583;53.132;6.574;2022-10-16T08:09:57;15.30;99.90
57753;DHT22;43583;53.132;6.574;2022-10-16T08:12:24;15.40;99.90
57753;DHT22;43583;53.132;6.574;2022-10-16T08:14:49;15.80;99.90
57753;DHT22;43583;53.132;6.574;2022-10-16T08:17:15;16.20;99.90
57753;DHT22;43583;53.132;6.574;2022-10-16T08:19:47;16.30;99.90
57753;DHT22;43583;53.132;6.574;2022-10-16T08:22:14;16.60;99.90
57753;DHT22;43583;53.132;6.574;2022-10-16T08:24:40;17.10;99.90
57753;DHT22;43583;53.132;6.574;2022-10-16T08:27:06;17.20;99.90
57753;DHT22;43583;53.132;6.574;2022-10-16T08:29:32;17.30;99.90
57753;DHT22;43583;53.132;6.574;2022-10-16T08:31:58;17.90;99.90
57753;DHT22;43583;53.132;6.574;2022-10-16T08:34:23;18.70;99.90
57753;DHT22;43583;53.132;6.574;2022-10-16T08:36:49;19.60;99.90
57753;DHT22;43583;53.132;6.574;2022-10-16T08:39:15;20.10;99.90
57753;DHT22;43583;53.132;6.574;2022-10-16T08:42:10;20.50;99.90
57753;DHT22;43583;53.132;6.574;2022-10-16T08:50:28;21.80;99.90
57753;DHT22;43583;53.132;6.574;2022-10-16T08:52:55;21.50;99.90
57753;DHT22;43583;53.132;6.574;2022-10-16T08:55:44;21.30;99.90
57753;DHT22;43583;53.132;6.574;2022-10-16T08:58:16;21.40;99.90
57753;DHT22;43583;53.132;6.574;2022-10-16T09:00:43;21.50;99.90
57753;DHT22;43583;53.132;6.574;2022-10-16T09:03:25;21.70;99.90
57753;DHT22;43583;53.132;6.574;2022-10-16T09:06:30;21.90;99.90
57753;DHT22;43583;53.132;6.574;2022-10-16T09:09:40;22.10;99.90
57753;DHT22;43583;53.132;6.574;2022-10-16T09:12:28;22.60;99.90
57753;DHT22;43583;53.132;6.574;2022-10-16T09:20:31;22.10;99.90
57753;DHT22;43583;53.132;6.574;2022-10-16T09:23:21;21.90;99.90
57753;DHT22;43583;53.132;6.574;2022-10-16T09:25:49;21.50;99.90
57753;DHT22;43583;53.132;6.574;2022-10-16T09:28:17;21.10;99.90
57753;DHT22;43583;53.132;6.574;2022-10-16T09:30:43;20.80;99.90
57753;DHT22;43583;53.132;6.574;2022-10-16T09:33:10;20.50;99.90
57753;DHT22;43583;53.132;6.574;2022-10-16T09:35:45;20.10;99.90
57753;DHT22;43583;53.132;6.574;2022-10-16T09:38:29;19.60;99.90
57753;DHT22;43583;53.132;6.574;2022-10-16T09:41:00;19.40;99.90
57753;DHT22;43583;53.132;6.574;2022-10-16T09:43:34;19.10;99.90
57753;DHT22;43583;53.132;6.574;2022-10-16T09:48:34;18.40;99.90
57753;DHT22;43583;53.132;6.574;2022-10-16T09:51:04;18.00;99.90
57753;DHT22;43583;53.132;6.574;2022-10-16T09:53:42;17.60;99.90
57753;DHT22;43583;53.132;6.574;2022-10-16T09:56:10;17.40;99.90
57753;DHT22;43583;53.132;6.574;2022-10-16T09:58:42;17.30;99.90
57753;DHT22;43583;53.132;6.574;2022-10-16T10:01:12;17.30;99.90
57753;DHT22;43583;53.132;6.574;2022-10-16T10:03:40;17.40;99.90
57753;DHT22;43583;53.132;6.574;2022-10-16T10:06:16;17.50;99.90
57753;DHT22;43583;53.132;6.574;2022-10-16T10:08:56;17.50;99.90
57753;DHT22;43583;53.132;6.574;2022-10-16T10:11:58;17.50;99.90
57753;DHT22;43583;53.132;6.574;2022-10-16T10:14:44;17.50;99.90
57753;DHT22;43583;53.132;6.574;2022-10-16T10:17:16;17.50;99.90
57753;DHT22;43583;53.132;6.574;2022-10-16T10:19:50;17.30;99.90
57753;DHT22;43583;53.132;6.574;2022-10-16T10:44:11;17.60;99.90
57753;DHT22;43583;53.132;6.574;2022-10-16T10:49:57;17.70;99.90
57753;DHT22;43583;53.132;6.574;2022-10-16T10:53:10;17.70;99.90
57753;DHT22;43583;53.132;6.574;2022-10-16T11:06:15;17.90;99.90
57753;DHT22;43583;53.132;6.574;2022-10-16T11:08:49;17.80;99.90
57753;DHT22;43583;53.132;6.574;2022-10-16T11:11:24;17.80;99.90
57753;DHT22;43583;53.132;6.574;2022-10-16T11:13:59;17.90;99.90
57753;DHT22;43583;53.132;6.574;2022-10-16T11:17:10;18.00;99.90
57753;DHT22;43583;53.132;6.574;2022-10-16T11:19:47;18.10;99.90
57753;DHT22;43583;53.132;6.574;2022-10-16T11:22:38;18.10;99.90
57753;DHT22;43583;53.132;6.574;2022-10-16T11:30:34;18.20;99.90
57753;DHT22;43583;53.132;6.574;2022-10-16T11:38:58;18.20;99.90
57753;DHT22;43583;53.132;6.574;2022-10-16T11:41:39;18.10;99.90
57753;DHT22;43583;53.132;6.574;2022-10-16T11:49:31;18.00;99.90
57753;DHT22;43583;53.132;6.574;2022-10-16T11:52:30;18.00;99.90
57753;DHT22;43583;53.132;6.574;2022-10-16T11:55:09;18.10;99.90
57753;DHT22;43583;53.132;6.574;2022-10-16T11:57:43;17.90;99.90
57753;DHT22;43583;53.132;6.574;2022-10-16T12:00:34;17.80;99.90
57753;DHT22;43583;53.132;6.574;2022-10-16T12:03:21;17.70;99.90
57753;DHT22;43583;53.132;6.574;2022-10-16T12:08:43;17.50;99.90
57753;DHT22;43583;53.132;6.574;2022-10-16T12:11:31;17.60;99.90
57753;DHT22;43583;53.132;6.574;2022-10-16T12:16:59;17.50;99.90
57753;DHT22;43583;53.132;6.574;2022-10-16T12:19:28;17.50;99.90
57753;DHT22;43583;53.132;6.574;2022-10-16T12:21:56;17.50;99.90
57753;DHT22;43583;53.132;6.574;2022-10-16T12:24:41;17.30;99.90
57753;DHT22;43583;53.132;6.574;2022-10-16T12:27:30;17.30;99.90
57753;DHT22;43583;53.132;6.574;2022-10-16T12:30:04;17.30;99.90
57753;DHT22;43583;53.132;6.574;2022-10-16T12:32:37;17.30;99.90
57753;DHT22;43583;53.132;6.574;2022-10-16T12:35:16;17.30;99.90
57753;DHT22;43583;53.132;6.574;2022-10-16T12:37:44;17.40;99.90
57753;DHT22;43583;53.132;6.574;2022-10-16T12:40:31;17.50;99.90
57753;DHT22;43583;53.132;6.574;2022-10-16T12:42:57;17.60;99.90
57753;DHT22;43583;53.132;6.574;2022-10-16T12:45:24;17.60;99.90
57753;DHT22;43583;53.132;6.574;2022-10-16T12:47:52;17.70;99.90
57753;DHT22;43583;53.132;6.574;2022-10-16T12:50:38;17.90;99.90
57753;DHT22;43583;53.132;6.574;2022-10-16T12:53:24;18.10;99.90
57753;DHT22;43583;53.132;6.574;2022-10-16T12:56:03;18.20;99.90
57753;DHT22;43583;53.132;6.574;2022-10-16T13:01:46;18.30;99.90
57753;DHT22;43583;53.132;6.574;2022-10-16T13:10:06;18.30;99.90
57753;DHT22;43583;53.132;6.574;2022-10-16T13:16:03;18.10;99.90
57753;DHT22;43583;53.132;6.574;2022-10-16T13:29:09;17.80;99.90
57753;DHT22;43583;53.132;6.574;2022-10-16T13:31:38;17.80;99.90
57753;DHT22;43583;53.132;6.574;2022-10-16T13:34:05;17.80;99.90
57753;DHT22;43583;53.132;6.574;2022-10-16T13:36:43;17.80;99.90
57753;DHT22;43583;53.132;6.574;2022-10-16T13:39:11;17.80;99.90
57753;DHT22;43583;53.132;6.574;2022-10-16T13:41:37;17.80;99.90
57753;DHT22;43583;53.132;6.574;2022-10-16T13:44:03;17.80;99.90
57753;DHT22;43583;53.132;6.574;2022-10-16T13:46:31;17.90;99.90
57753;DHT22;43583;53.132;6.574;2022-10-16T13:49:15;17.80;99.90
57753;DHT22;43583;53.132;6.574;2022-10-16T13:51:59;17.80;99.90
57753;DHT22;43583;53.132;6.574;2022-10-16T13:54:26;17.70;99.90
57753;DHT22;43583;53.132;6.574;2022-10-16T13:56:52;17.60;99.90
57753;DHT22;43583;53.132;6.574;2022-10-16T13:59:33;17.50;99.90
57753;DHT22;43583;53.132;6.574;2022-10-16T14:02:04;17.40;99.90
57753;DHT22;43583;53.132;6.574;2022-10-16T14:04:38;17.20;99.90
57753;DHT22;43583;53.132;6.574;2022-10-16T14:07:04;17.20;99.90
57753;DHT22;43583;53.132;6.574;2022-10-16T14:09:30;17.10;99.90
57753;DHT22;43583;53.132;6.574;2022-10-16T14:12:02;17.10;99.90
57753;DHT22;43583;53.132;6.574;2022-10-16T14:14:35;17.00;99.90
57753;DHT22;43583;53.132;6.574;2022-10-16T14:17:02;16.90;99.90
57753;DHT22;43583;53.132;6.574;2022-10-16T14:19:29;16.90;99.90
57753;DHT22;43583;53.132;6.574;2022-10-16T14:21:56;16.80;99.90
57753;DHT22;43583;53.132;6.574;2022-10-16T14:24:30;16.80;99.90
57753;DHT22;43583;53.132;6.574;2022-10-16T14:26:57;16.70;99.90
57753;DHT22;43583;53.132;6.574;2022-10-16T14:29:25;16.70;99.90
57753;DHT22;43583;53.132;6.574;2022-10-16T14:34:34;16.40;99.90
57753;DHT22;43583;53.132;6.574;2022-10-16T14:37:05;16.20;99.90
57753;DHT22;43583;53.132;6.574;2022-10-16T14:39:33;16.10;99.90
57753;DHT22;43583;53.132;6.574;2022-10-16T14:41:59;16.00;99.90
57753;DHT22;43583;53.132;6.574;2022-10-16T14:44:31;15.90;99.90
57753;DHT22;43583;53.132;6.574;2022-10-16T14:46:58;15.90;99.90
57753;DHT22;43583;53.132;6.574;2022-10-16T14:49:25;15.80;99.90
57753;DHT22;43583;53.132;6.574;2022-10-16T14:51:51;15.80;99.90
57753;DHT22;43583;53.132;6.574;2022-10-16T14:54:18;15.70;99.90
57753;DHT22;43583;53.132;6.574;2022-10-16T14:56:48;15.60;99.90
57753;DHT22;43583;53.132;6.574;2022-10-16T14:59:30;15.60;99.90
57753;DHT22;43583;53.132;6.574;2022-10-16T15:01:57;15.50;99.90
57753;DHT22;43583;53.132;6.574;2022-10-16T15:04:23;15.40;99.90
57753;DHT22;43583;53.132;6.574;2022-10-16T15:06:49;15.50;99.90
57753;DHT22;43583;53.132;6.574;2022-10-16T15:09:14;15.40;99.90
57753;DHT22;43583;53.132;6.574;2022-10-16T15:11:41;15.40;99.90
57753;DHT22;43583;53.132;6.574;2022-10-16T15:14:11;15.40;99.90
57753;DHT22;43583;53.132;6.574;2022-10-16T15:16:37;15.40;99.90
57753;DHT22;43583;53.132;6.574;2022-10-16T15:19:03;15.40;99.90
57753;DHT22;43583;53.132;6.574;2022-10-16T15:21:31;15.30;99.90
57753;DHT22;43583;53.132;6.574;2022-10-16T15:23:58;15.30;99.90
57753;DHT22;43583;53.132;6.574;2022-10-16T15:26:25;15.30;99.90
57753;DHT22;43583;53.132;6.574;2022-10-16T15:28:51;15.20;99.90
57753;DHT22;43583;53.132;6.574;2022-10-16T15:31:17;15.20;99.90
57753;DHT22;43583;53.132;6.574;2022-10-16T15:33:43;15.20;99.90
57753;DHT22;43583;53.132;6.574;2022-10-16T15:36:09;15.10;99.90
57753;DHT22;43583;53.132;6.574;2022-10-16T15:38:35;15.10;99.90
57753;DHT22;43583;53.132;6.574;2022-10-16T15:41:00;15.00;99.90
57753;DHT22;43583;53.132;6.574;2022-10-16T15:43:26;14.90;99.90
57753;DHT22;43583;53.132;6.574;2022-10-16T15:46:03;14.90;99.90
57753;DHT22;43583;53.132;6.574;2022-10-16T15:48:30;14.80;99.90
57753;DHT22;43583;53.132;6.574;2022-10-16T15:50:56;14.70;99.90
57753;DHT22;43583;53.132;6.574;2022-10-16T15:53:21;14.60;99.90
57753;DHT22;43583;53.132;6.574;2022-10-16T15:55:47;14.60;99.90
57753;DHT22;43583;53.132;6.574;2022-10-16T15:58:13;14.50;99.90
57753;DHT22;43583;53.132;6.574;2022-10-16T16:00:38;14.40;99.90
57753;DHT22;43583;53.132;6.574;2022-10-16T16:03:04;14.40;99.90
57753;DHT22;43583;53.132;6.574;2022-10-16T16:05:30;14.30;99.90
57753;DHT22;43583;53.132;6.574;2022-10-16T16:07:56;14.20;99.90
57753;DHT22;43583;53.132;6.574;2022-10-16T16:10:22;14.10;99.90
57753;DHT22;43583;53.132;6.574;2022-10-16T16:12:48;13.90;99.90
57753;DHT22;43583;53.132;6.574;2022-10-16T16:15:17;13.80;99.90
57753;DHT22;43583;53.132;6.574;2022-10-16T16:17:43;13.70;99.90
57753;DHT22;43583;53.132;6.574;2022-10-16T16:20:10;13.60;99.90
57753;DHT22;43583;53.132;6.574;2022-10-16T16:22:36;13.40;99.90
57753;DHT22;43583;53.132;6.574;2022-10-16T16:25:01;13.30;99.90
57753;DHT22;43583;53.132;6.574;2022-10-16T16:27:27;13.20;99.90
57753;DHT22;43583;53.132;6.574;2022-10-16T16:29:55;13.10;99.90
57753;DHT22;43583;53.132;6.574;2022-10-16T16:32:21;13.00;99.90
57753;DHT22;43583;53.132;6.574;2022-10-16T16:34:47;12.90;99.90
57753;DHT22;43583;53.132;6.574;2022-10-16T16:37:12;12.80;99.90
57753;DHT22;43583;53.132;6.574;2022-10-16T16:39:38;12.70;99.90
57753;DHT22;43583;53.132;6.574;2022-10-16T16:42:04;12.60;99.90
57753;DHT22;43583;53.132;6.574;2022-10-16T16:44:32;12.40;99.90
57753;DHT22;43583;53.132;6.574;2022-10-16T16:46:57;12.30;99.90
57753;DHT22;43583;53.132;6.574;2022-10-16T16:49:23;12.20;99.90
57753;DHT22;43583;53.132;6.574;2022-10-16T16:51:49;12.10;99.90
57753;DHT22;43583;53.132;6.574;2022-10-16T16:54:14;12.10;99.90
57753;DHT22;43583;53.132;6.574;2022-10-16T16:56:41;12.00;99.90
57753;DHT22;43583;53.132;6.574;2022-10-16T16:59:17;11.90;99.90
57753;DHT22;43583;53.132;6.574;2022-10-16T17:01:45;11.90;99.90
57753;DHT22;43583;53.132;6.574;2022-10-16T17:04:10;11.80;99.90
57753;DHT22;43583;53.132;6.574;2022-10-16T17:06:37;11.80;99.90
57753;DHT22;43583;53.132;6.574;2022-10-16T17:09:04;11.70;99.90
57753;DHT22;43583;53.132;6.574;2022-10-16T17:11:30;11.60;99.90
57753;DHT22;43583;53.132;6.574;2022-10-16T17:13:57;11.50;99.90
57753;DHT22;43583;53.132;6.574;2022-10-16T17:16:32;11.50;99.90
57753;DHT22;43583;53.132;6.574;2022-10-16T17:19:02;11.30;99.90
57753;DHT22;43583;53.132;6.574;2022-10-16T17:21:28;11.20;99.90
57753;DHT22;43583;53.132;6.574;2022-10-16T17:23:56;11.10;99.90
57753;DHT22;43583;53.132;6.574;2022-10-16T17:26:22;11.00;99.90
57753;DHT22;43583;53.132;6.574;2022-10-16T17:28:51;10.90;99.90
57753;DHT22;43583;53.132;6.574;2022-10-16T17:31:19;10.90;99.90
57753;DHT22;43583;53.132;6.574;2022-10-16T17:33:45;10.80;99.90
57753;DHT22;43583;53.132;6.574;2022-10-16T17:36:11;10.80;99.90